Time;durP1;ratioP1;P1;durP2;ratioP2;P2;SDS_P1;SDS_P2;PMS_P1;PMS_P2;Temp;Humidity;BMP_temperature;BMP_pressure;BME280_temperature;BME280_humidity;BME280_pressure;Samples;Min_cycle;Max_cycle;Signal;HPM_P1;HPM_P2
2020/12/11 00:02:00;;;;;;;11.52;6.75;;;7.80;69.80;;;;;;4986584;28;20036;-75
2020/12/11 00:04:25;;;;;;;9.63;6.22;;;7.80;69.90;;;;;;4986777;28;20045;-74
2020/12/11 00:06:51;;;;;;;11.40;6.93;;;7.80;69.90;;;;;;4987004;28;20393;-75
2020/12/11 00:09:16;;;;;;;12.32;6.88;;;7.80;69.90;;;;;;4983718;28;20055;-75
2020/12/11 00:11:42;;;;;;;8.90;5.97;;;7.90;70.00;;;;;;4983386;28;20054;-74
2020/12/11 00:14:07;;;;;;;11.23;6.05;;;7.80;70.00;;;;;;4979709;28;20037;-75
2020/12/11 00:16:35;;;;;;;10.77;6.32;;;7.80;70.00;;;;;;4986305;28;20031;-75
2020/12/11 00:19:01;;;;;;;12.63;6.63;;;7.80;70.00;;;;;;4983113;28;20038;-76
2020/12/11 00:21:26;;;;;;;12.07;6.80;;;7.80;70.00;;;;;;4989605;28;20026;-75
2020/12/11 00:23:52;;;;;;;12.98;7.28;;;7.90;70.00;;;;;;4987009;28;20116;-76
2020/12/11 00:26:17;;;;;;;10.95;5.85;;;7.80;70.00;;;;;;4988518;28;20026;-75
2020/12/11 00:28:43;;;;;;;12.07;6.78;;;7.80;69.90;;;;;;4982902;28;20057;-75
2020/12/11 00:31:08;;;;;;;13.93;6.50;;;7.80;69.90;;;;;;4984897;28;20026;-76
2020/12/11 00:33:34;;;;;;;10.63;6.82;;;7.90;70.00;;;;;;4983025;28;20026;-74
2020/12/11 00:35:59;;;;;;;11.45;7.47;;;7.90;69.90;;;;;;4991851;28;20027;-75
2020/12/11 00:38:29;;;;;;;11.68;6.50;;;7.80;69.80;;;;;;4985334;28;20081;-75
2020/12/11 00:40:55;;;;;;;13.75;6.90;;;7.80;69.80;;;;;;4985106;28;20109;-76
2020/12/11 00:43:21;;;;;;;10.40;6.25;;;7.80;69.70;;;;;;4987030;28;20104;-76
2020/12/11 00:45:46;;;;;;;14.88;8.25;;;7.80;69.70;;;;;;4984573;28;20125;-74
2020/12/11 00:48:11;;;;;;;13.82;7.75;;;7.90;69.80;;;;;;4983715;28;20540;-74
2020/12/11 00:50:37;;;;;;;13.52;7.38;;;7.80;69.70;;;;;;4983992;28;20121;-74
2020/12/11 00:53:02;;;;;;;12.75;7.30;;;7.80;69.70;;;;;;4983831;28;20110;-75
2020/12/11 00:55:28;;;;;;;11.05;6.75;;;7.80;69.70;;;;;;4985380;28;20073;-74
2020/12/11 00:57:53;;;;;;;14.82;7.82;;;7.90;69.70;;;;;;4982318;28;20080;-74
2020/12/11 01:00:19;;;;;;;14.27;8.13;;;7.70;69.60;;;;;;4983843;28;20569;-73
2020/12/11 01:02:45;;;;;;;12.55;6.60;;;7.80;69.60;;;;;;4982556;28;20042;-74
2020/12/11 01:05:10;;;;;;;11.27;7.13;;;7.70;69.70;;;;;;4983338;28;20031;-74
2020/12/11 01:07:36;;;;;;;12.05;6.50;;;7.70;69.70;;;;;;4983685;28;20046;-75
2020/12/11 01:10:03;;;;;;;10.85;6.43;;;7.80;69.70;;;;;;4986915;28;20037;-75
2020/12/11 01:12:28;;;;;;;13.15;7.55;;;7.80;69.80;;;;;;4982851;28;20026;-74
2020/12/11 01:14:54;;;;;;;14.85;7.68;;;7.70;69.70;;;;;;4981655;28;20065;-75
2020/12/11 01:17:19;;;;;;;13.48;8.07;;;7.70;69.70;;;;;;4985667;28;20101;-75
2020/12/11 01:19:45;;;;;;;13.45;8.23;;;7.70;69.60;;;;;;4986296;28;20117;-75
2020/12/11 01:22:11;;;;;;;11.05;7.03;;;7.70;69.70;;;;;;4984340;28;20393;-75
2020/12/11 01:24:37;;;;;;;11.98;6.32;;;7.70;69.70;;;;;;4991326;28;20682;-75
2020/12/11 01:27:02;;;;;;;12.70;8.10;;;7.70;69.70;;;;;;4984823;28;20027;-75
2020/12/11 01:29:28;;;;;;;12.82;7.35;;;7.60;69.70;;;;;;4981315;28;20046;-74
2020/12/11 01:31:58;;;;;;;12.32;7.22;;;7.60;69.80;;;;;;4985168;28;20042;-76
2020/12/11 01:34:25;;;;;;;13.85;8.00;;;7.60;69.90;;;;;;4982604;28;20030;-75
2020/12/11 01:36:50;;;;;;;14.32;8.15;;;7.70;70.00;;;;;;4982417;28;20586;-72
2020/12/11 01:39:16;;;;;;;16.20;9.38;;;7.70;70.00;;;;;;4984380;28;20117;-74
2020/12/11 01:41:42;;;;;;;16.13;8.23;;;7.60;70.00;;;;;;4983026;28;20600;-75
2020/12/11 01:44:09;;;;;;;16.27;7.97;;;7.70;70.00;;;;;;4978837;28;20397;-73
2020/12/11 01:46:40;;;;;;;14.70;8.38;;;7.70;70.00;;;;;;4986129;28;20030;-75
2020/12/11 01:49:11;;;;;;;;;;;7.60;70.00;;;;;;4984658;28;20143;-75
2020/12/11 01:51:36;;;;;;;12.65;6.88;;;7.70;70.10;;;;;;4983881;28;19913;-75
2020/12/11 01:54:03;;;;;;;12.85;7.45;;;7.80;69.70;;;;;;4983749;28;20035;-74
2020/12/11 01:56:43;;;;;;;10.80;6.80;;;7.70;69.60;;;;;;4980790;28;20109;-75
2020/12/11 01:59:15;;;;;;;11.40;6.73;;;7.70;69.70;;;;;;4986387;28;20050;-75
2020/12/11 02:01:42;;;;;;;9.95;6.15;;;7.70;69.70;;;;;;4988525;28;20053;-75
2020/12/11 02:04:08;;;;;;;12.75;7.00;;;7.70;69.70;;;;;;4980816;28;20556;-76
2020/12/11 02:06:35;;;;;;;14.90;7.65;;;7.70;69.70;;;;;;4982312;28;20205;-76
2020/12/11 02:09:01;;;;;;;11.48;7.05;;;7.70;69.70;;;;;;4984044;28;20070;-75
2020/12/11 02:11:27;;;;;;;11.95;6.60;;;7.60;69.70;;;;;;4964831;28;20189;-73
2020/12/11 02:13:52;;;;;;;10.65;6.68;;;7.70;69.70;;;;;;4981420;28;20109;-75
2020/12/11 02:16:22;;;;;;;10.70;6.50;;;7.60;69.70;;;;;;4984218;28;20456;-75
2020/12/11 02:18:48;;;;;;;11.85;7.97;;;7.60;69.70;;;;;;4980458;28;20038;-75
2020/12/11 02:21:14;;;;;;;12.57;7.00;;;7.60;69.70;;;;;;4990082;28;20494;-74
2020/12/11 02:23:45;;;;;;;11.75;6.80;;;7.60;69.80;;;;;;4988042;28;20042;-75
2020/12/11 02:26:12;;;;;;;8.75;5.90;;;7.60;69.70;;;;;;4981814;28;20026;-75
2020/12/11 02:28:37;;;;;;;12.63;6.75;;;7.60;69.70;;;;;;4981108;28;20038;-75
2020/12/11 02:31:04;;;;;;;13.88;7.65;;;7.60;69.70;;;;;;4983117;28;20073;-75
2020/12/11 02:33:30;;;;;;;12.05;7.03;;;7.70;69.70;;;;;;4984553;28;20573;-75
2020/12/11 02:35:56;;;;;;;10.13;6.57;;;7.60;69.70;;;;;;4986059;28;20050;-73
2020/12/11 02:38:21;;;;;;;10.70;6.57;;;7.60;69.70;;;;;;4986269;28;20049;-75
2020/12/11 02:40:56;;;;;;;12.13;7.28;;;7.60;69.60;;;;;;4989056;28;20085;-75
2020/12/11 02:43:22;;;;;;;11.02;6.80;;;7.60;69.60;;;;;;4985562;28;20046;-74
2020/12/11 02:45:50;;;;;;;13.10;8.30;;;7.60;69.60;;;;;;4988333;28;20518;-74
2020/12/11 02:48:16;;;;;;;13.27;7.78;;;7.70;69.70;;;;;;4987510;28;20073;-74
2020/12/11 02:50:41;;;;;;;12.88;8.55;;;7.70;69.60;;;;;;4984878;28;20497;-75
2020/12/11 02:53:07;;;;;;;13.60;8.00;;;7.70;70.20;;;;;;4987838;28;20065;-75
2020/12/11 02:55:35;;;;;;;18.27;9.40;;;7.60;69.60;;;;;;4990435;28;20507;-73
2020/12/11 02:58:01;;;;;;;13.45;7.47;;;7.60;69.50;;;;;;4985092;28;20061;-74
2020/12/11 03:00:27;;;;;;;13.27;8.63;;;7.60;69.50;;;;;;4987288;28;20113;-75
2020/12/11 03:02:52;;;;;;;16.02;8.90;;;7.70;69.50;;;;;;4989391;28;20667;-75
2020/12/11 03:05:18;;;;;;;13.50;8.82;;;7.60;69.50;;;;;;4990333;28;20550;-76
2020/12/11 03:07:44;;;;;;;12.20;8.30;;;7.60;69.50;;;;;;4969968;28;20034;-75
2020/12/11 03:10:09;;;;;;;13.00;7.50;;;7.60;69.50;;;;;;4988448;28;20053;-75
2020/12/11 03:12:35;;;;;;;12.18;7.38;;;7.60;69.50;;;;;;4981470;28;20082;-75
2020/12/11 03:15:01;;;;;;;11.75;7.70;;;7.60;69.60;;;;;;4986228;28;20030;-74
2020/12/11 03:17:26;;;;;;;10.68;6.85;;;7.60;69.60;;;;;;4985493;28;20030;-74
2020/12/11 03:19:52;;;;;;;13.65;6.47;;;7.60;69.60;;;;;;4985811;28;20034;-75
2020/12/11 03:22:17;;;;;;;8.98;6.53;;;7.60;69.70;;;;;;4986521;28;20043;-74
2020/12/11 03:24:43;;;;;;;13.57;7.60;;;7.60;69.60;;;;;;4986623;28;20065;-73
2020/12/11 03:27:09;;;;;;;10.35;7.32;;;7.60;69.60;;;;;;4986346;28;20125;-75
2020/12/11 03:29:35;;;;;;;11.25;6.88;;;7.70;69.60;;;;;;4987303;28;20038;-77
2020/12/11 03:32:00;;;;;;;10.30;6.85;;;7.60;69.60;;;;;;4986203;28;20034;-75
2020/12/11 03:34:26;;;;;;;10.88;7.45;;;7.60;69.60;;;;;;4985999;28;20041;-74
2020/12/11 03:36:51;;;;;;;10.00;6.75;;;7.60;69.50;;;;;;4986708;28;20031;-77
2020/12/11 03:39:17;;;;;;;10.85;6.57;;;7.60;69.50;;;;;;4991104;28;20456;-75
2020/12/11 03:41:43;;;;;;;10.30;6.53;;;7.60;69.50;;;;;;4984464;28;20045;-75
2020/12/11 03:44:09;;;;;;;12.10;7.20;;;7.70;69.50;;;;;;4984942;28;20031;-75
2020/12/11 03:46:35;;;;;;;12.55;7.47;;;7.60;69.50;;;;;;4989083;28;20027;-75
2020/12/11 03:49:00;;;;;;;11.38;7.10;;;7.60;69.40;;;;;;4994075;28;20034;-75
2020/12/11 03:51:26;;;;;;;9.35;5.68;;;7.60;69.40;;;;;;4991164;28;20022;-73
2020/12/11 03:53:52;;;;;;;10.27;6.35;;;7.60;69.40;;;;;;4988534;28;20030;-75
2020/12/11 03:56:19;;;;;;;8.85;6.03;;;7.70;69.50;;;;;;4989048;28;20077;-75
2020/12/11 03:58:45;;;;;;;10.18;6.60;;;7.60;69.40;;;;;;4983895;28;20041;-75
2020/12/11 04:01:13;;;;;;;9.45;6.03;;;7.60;69.40;;;;;;4992888;28;20060;-76
2020/12/11 04:03:39;;;;;;;9.10;6.13;;;7.60;69.50;;;;;;4983461;28;20041;-75
2020/12/11 04:06:08;;;;;;;10.45;6.75;;;7.60;69.50;;;;;;4989068;28;20105;-75
2020/12/11 04:08:34;;;;;;;8.57;6.28;;;7.60;69.50;;;;;;4985801;28;20042;-74
2020/12/11 04:11:04;;;;;;;12.32;6.93;;;7.60;69.50;;;;;;4987144;28;20026;-75
2020/12/11 04:13:30;;;;;;;10.10;6.30;;;7.50;69.40;;;;;;4980837;28;20065;-75
2020/12/11 04:15:55;;;;;;;9.35;6.35;;;7.60;69.50;;;;;;4983564;28;20050;-75
2020/12/11 04:18:21;;;;;;;10.25;6.43;;;7.60;69.50;;;;;;4979548;28;20031;-74
2020/12/11 04:20:46;;;;;;;12.27;6.90;;;7.50;69.40;;;;;;4998348;28;20093;-75
2020/12/11 04:23:12;;;;;;;10.18;6.78;;;7.60;69.50;;;;;;4984573;28;20117;-73
2020/12/11 04:25:37;;;;;;;10.45;6.78;;;7.60;69.90;;;;;;4991377;28;20112;-75
2020/12/11 04:28:03;;;;;;;10.23;6.60;;;7.60;69.40;;;;;;4980146;28;20038;-75
2020/12/11 04:30:28;;;;;;;13.98;8.25;;;7.60;69.30;;;;;;4984055;28;20042;-73
2020/12/11 04:32:54;;;;;;;9.27;6.55;;;7.60;69.80;;;;;;4988938;28;20114;-75
2020/12/11 04:35:19;;;;;;;8.63;6.13;;;7.60;69.20;;;;;;4984442;28;20030;-75
2020/12/11 04:37:47;;;;;;;12.75;7.80;;;7.60;69.30;;;;;;4983744;28;20255;-74
2020/12/11 04:40:12;;;;;;;12.77;7.25;;;7.50;69.20;;;;;;4966272;28;20502;-75
2020/12/11 04:42:45;;;;;;;11.30;7.28;;;7.50;69.20;;;;;;4983996;28;20065;-75
2020/12/11 04:45:12;;;;;;;9.23;6.47;;;7.50;69.30;;;;;;4984942;28;20041;-75
2020/12/11 04:47:44;;;;;;;10.25;6.45;;;7.50;69.30;;;;;;4986709;28;20066;-75
2020/12/11 04:50:11;;;;;;;12.25;7.68;;;7.50;69.40;;;;;;4986690;28;20035;-75
2020/12/11 04:52:39;;;;;;;10.65;6.45;;;7.50;69.40;;;;;;4984168;28;20105;-75
2020/12/11 04:55:05;;;;;;;7.97;5.68;;;7.50;69.40;;;;;;4982555;28;20038;-74
2020/12/11 04:57:34;;;;;;;10.10;6.60;;;7.50;69.40;;;;;;4982946;28;20030;-75
2020/12/11 05:00:00;;;;;;;12.32;7.07;;;7.50;69.40;;;;;;4984956;28;20064;-73
2020/12/11 05:02:28;;;;;;;11.02;7.65;;;7.50;69.40;;;;;;4991453;28;20058;-75
2020/12/11 05:04:54;;;;;;;12.63;8.38;;;7.40;69.30;;;;;;4977966;28;20038;-74
2020/12/11 05:07:20;;;;;;;10.45;6.85;;;7.50;69.50;;;;;;4984887;28;20121;-76
2020/12/11 05:09:58;;;;;;;9.68;6.47;;;7.40;69.40;;;;;;4984855;28;20098;-73
2020/12/11 05:12:24;;;;;;;8.82;6.47;;;7.50;69.50;;;;;;4984815;28;20084;-73
2020/12/11 05:15:05;;;;;;;8.65;6.05;;;7.50;69.60;;;;;;4987041;28;20031;-75
2020/12/11 05:17:32;;;;;;;9.55;5.75;;;7.60;69.60;;;;;;4983317;28;20022;-75
2020/12/11 05:19:58;;;;;;;8.60;5.88;;;7.50;69.50;;;;;;4984150;28;20117;-74
2020/12/11 05:22:26;;;;;;;9.63;6.15;;;7.50;69.40;;;;;;4993231;28;20038;-75
2020/12/11 05:24:54;;;;;;;8.85;6.00;;;7.50;69.40;;;;;;4983153;28;20113;-75
2020/12/11 05:27:30;;;;;;;11.70;7.75;;;7.50;69.30;;;;;;4987806;28;20469;-75
2020/12/11 05:30:17;;;;;;;9.10;6.35;;;7.50;69.20;;;;;;4976931;28;20126;-74
2020/12/11 05:32:43;;;;;;;8.82;6.18;;;7.50;69.20;;;;;;4974916;28;20388;-75
2020/12/11 05:35:14;;;;;;;9.32;6.85;;;7.50;69.20;;;;;;4982150;28;20080;-75
2020/12/11 05:37:59;;;;;;;9.63;6.28;;;7.50;69.20;;;;;;4982717;28;20031;-75
2020/12/11 05:40:38;;;;;;;9.73;6.50;;;7.50;69.10;;;;;;4983440;28;20033;-74
2020/12/11 05:43:11;;;;;;;9.77;6.30;;;7.50;69.10;;;;;;4979106;28;20035;-75
2020/12/11 05:45:39;;;;;;;7.60;5.43;;;7.50;69.20;;;;;;4982066;28;20390;-72
2020/12/11 05:48:05;;;;;;;9.93;5.78;;;7.50;69.30;;;;;;4983166;28;20477;-73
2020/12/11 05:50:32;;;;;;;11.75;7.40;;;7.50;69.30;;;;;;4981962;28;20085;-74
2020/12/11 05:52:58;;;;;;;10.45;6.53;;;7.50;69.30;;;;;;4983185;28;20034;-74
2020/12/11 05:55:23;;;;;;;10.10;6.60;;;7.50;69.30;;;;;;4983978;28;20049;-73
2020/12/11 05:57:52;;;;;;;8.68;5.68;;;7.50;69.20;;;;;;4978205;28;20038;-72
2020/12/11 06:00:18;;;;;;;9.38;5.82;;;7.50;69.20;;;;;;4983476;28;20041;-74
2020/12/11 06:02:46;;;;;;;9.75;6.22;;;7.50;69.20;;;;;;4985691;28;20512;-74
2020/12/11 06:05:15;;;;;;;7.47;5.28;;;7.50;69.20;;;;;;4981422;28;20057;-75
2020/12/11 06:07:42;;;;;;;10.23;5.95;;;7.50;69.10;;;;;;4981737;28;20035;-72
2020/12/11 06:10:08;;;;;;;9.73;6.13;;;7.50;69.10;;;;;;4985490;28;20117;-75
2020/12/11 06:12:33;;;;;;;9.98;5.88;;;7.50;69.10;;;;;;4983333;28;20113;-75
2020/12/11 06:15:07;;;;;;;9.32;6.03;;;7.50;69.00;;;;;;4979959;28;20061;-73
2020/12/11 06:18:15;;;;;;;9.50;5.38;;;7.50;69.00;;;;;;4984177;28;20054;-74
2020/12/11 06:20:41;;;;;;;7.50;5.22;;;7.50;68.90;;;;;;4986712;28;20081;-73
2020/12/11 06:23:28;;;;;;;9.15;5.63;;;7.50;69.00;;;;;;4982928;28;20385;-74
2020/12/11 06:26:01;;;;;;;9.20;6.75;;;7.40;68.80;;;;;;4978641;28;20026;-74
2020/12/11 06:28:35;;;;;;;9.30;5.97;;;7.50;69.00;;;;;;4982487;28;20031;-74
2020/12/11 06:31:02;;;;;;;11.07;7.97;;;7.50;68.90;;;;;;4986818;28;20022;-72
2020/12/11 06:33:33;;;;;;;8.43;6.00;;;7.50;68.90;;;;;;4983792;28;20030;-75
2020/12/11 06:36:00;;;;;;;9.40;6.35;;;7.40;68.80;;;;;;4990109;28;20366;-74
2020/12/11 06:38:43;;;;;;;12.60;7.50;;;7.40;68.70;;;;;;4981841;28;20026;-74
2020/12/11 06:41:10;;;;;;;10.95;7.75;;;7.40;68.50;;;;;;4983550;28;20026;-74
2020/12/11 06:43:43;;;;;;;11.30;7.10;;;7.40;68.50;;;;;;4984743;28;20520;-75
2020/12/11 06:46:20;;;;;;;10.35;7.13;;;7.40;68.50;;;;;;4990184;28;20030;-75
2020/12/11 06:49:07;;;;;;;9.38;6.90;;;7.30;68.40;;;;;;4983515;28;20049;-74
2020/12/11 06:51:55;;;;;;;11.80;7.55;;;7.30;68.40;;;;;;4983255;28;20054;-74
2020/12/11 06:54:21;;;;;;;9.30;6.57;;;7.30;68.40;;;;;;4975128;28;20508;-75
2020/12/11 06:56:55;;;;;;;10.15;6.72;;;7.30;68.60;;;;;;4980736;28;20027;-76
2020/12/11 06:59:39;;;;;;;10.35;6.70;;;7.30;68.50;;;;;;4979128;28;20041;-74
2020/12/11 07:02:08;;;;;;;9.55;6.50;;;7.20;68.50;;;;;;4983752;28;20636;-75
2020/12/11 07:04:38;;;;;;;9.32;6.90;;;7.20;68.50;;;;;;4983380;28;20034;-73
2020/12/11 07:07:04;;;;;;;9.80;6.30;;;7.20;68.40;;;;;;4983412;28;20442;-74
2020/12/11 07:09:30;;;;;;;9.60;6.57;;;7.10;68.50;;;;;;4964633;28;20061;-75
2020/12/11 07:11:56;;;;;;;10.40;6.82;;;7.10;68.60;;;;;;4982830;28;20023;-76
2020/12/11 07:14:28;;;;;;;9.73;7.57;;;7.10;68.60;;;;;;4981478;28;20018;-74
2020/12/11 07:16:53;;;;;;;9.95;6.78;;;7.00;68.50;;;;;;4982950;28;20109;-75
2020/12/11 07:19:19;;;;;;;11.15;6.70;;;7.00;68.60;;;;;;4988383;28;20098;-75
2020/12/11 07:21:46;;;;;;;10.02;7.03;;;7.10;68.70;;;;;;4991033;28;20556;-75
2020/12/11 07:24:13;;;;;;;13.73;8.20;;;7.00;68.70;;;;;;4988528;28;20032;-74
2020/12/11 07:26:39;;;;;;;11.57;7.72;;;7.00;68.70;;;;;;4989025;28;20113;-74
2020/12/11 07:29:17;;;;;;;12.00;7.68;;;7.00;68.70;;;;;;4981948;28;20110;-75
2020/12/11 07:31:44;;;;;;;11.73;7.93;;;7.10;68.60;;;;;;5068051;23;20504;-74
2020/12/11 07:34:17;;;;;;;9.55;6.65;;;7.00;68.60;;;;;;5025966;28;20037;-74
2020/12/11 07:36:47;;;;;;;10.43;6.63;;;7.00;68.50;;;;;;5014244;28;20087;-74
2020/12/11 07:39:17;;;;;;;11.85;7.32;;;7.00;68.50;;;;;;5026345;28;20543;-74
2020/12/11 07:41:44;;;;;;;10.68;7.07;;;7.00;68.50;;;;;;5026462;28;20033;-74
2020/12/11 07:44:19;;;;;;;9.63;7.05;;;7.00;68.50;;;;;;5020310;28;20026;-74
2020/12/11 07:46:45;;;;;;;9.38;6.95;;;7.00;68.50;;;;;;5026142;28;20029;-75
2020/12/11 07:49:10;;;;;;;9.15;6.43;;;7.00;68.50;;;;;;5025122;28;20095;-74
2020/12/11 07:51:47;;;;;;;8.43;6.13;;;7.00;68.60;;;;;;5025695;28;20029;-73
2020/12/11 07:54:13;;;;;;;8.13;6.22;;;7.10;68.60;;;;;;5028188;28;20022;-74
2020/12/11 07:56:39;;;;;;;7.95;5.30;;;7.00;68.60;;;;;;5027285;28;20032;-74
2020/12/11 07:59:12;;;;;;;8.40;5.55;;;7.00;68.60;;;;;;5022542;28;20021;-74
2020/12/11 08:01:38;;;;;;;8.88;5.90;;;7.00;68.50;;;;;;5023285;28;20110;-74
2020/12/11 08:04:04;;;;;;;8.25;6.20;;;7.00;68.60;;;;;;5023867;28;20021;-73
2020/12/11 08:06:30;;;;;;;8.52;6.43;;;7.00;68.50;;;;;;5026660;28;20021;-74
2020/12/11 08:08:56;;;;;;;8.98;6.45;;;7.00;68.60;;;;;;5024865;28;20026;-74
2020/12/11 08:11:25;;;;;;;9.40;6.43;;;7.00;68.60;;;;;;5026427;28;20108;-72
2020/12/11 08:14:01;;;;;;;8.55;6.13;;;7.00;68.50;;;;;;5021843;28;20053;-74
2020/12/11 08:16:29;;;;;;;8.48;5.88;;;7.00;68.40;;;;;;5024429;28;20060;-74
2020/12/11 08:18:56;;;;;;;9.27;6.63;;;7.00;68.60;;;;;;5016144;28;20037;-74
2020/12/11 08:21:31;;;;;;;9.60;6.03;;;7.00;68.60;;;;;;5024758;28;20124;-74
2020/12/11 08:23:57;;;;;;;8.77;6.28;;;7.00;68.60;;;;;;5025009;28;20126;-74
2020/12/11 08:26:24;;;;;;;10.20;6.85;;;7.00;68.70;;;;;;5019972;28;20034;-74
2020/12/11 08:29:02;;;;;;;9.85;7.05;;;7.10;68.70;;;;;;5017849;28;20033;-74
2020/12/11 08:31:28;;;;;;;9.50;7.00;;;7.00;68.60;;;;;;5020699;28;20427;-74
2020/12/11 08:34:05;;;;;;;13.68;9.48;;;7.10;68.60;;;;;;5022306;28;20041;-74
2020/12/11 08:36:32;;;;;;;11.35;8.13;;;7.10;68.50;;;;;;5014166;28;20026;-74
2020/12/11 08:39:11;;;;;;;11.45;7.82;;;7.10;68.60;;;;;;5019733;28;20424;-75
2020/12/11 08:41:46;;;;;;;11.50;8.15;;;7.10;68.30;;;;;;5017465;28;20049;-75
2020/12/11 08:45:06;;;;;;;10.00;7.10;;;7.10;68.60;;;;;;5008366;28;20030;-75
2020/12/11 08:50:11;;;;;;;9.60;6.95;;;7.10;68.60;;;;;;5013678;28;20538;-75
2020/12/11 08:52:30;;;;;;;8.38;5.75;;;7.10;68.40;;;;;;5009866;28;20117;-74
2020/12/11 08:54:57;;;;;;;7.15;5.15;;;7.20;68.70;;;;;;5011418;28;20116;-75
2020/12/11 08:57:24;;;;;;;9.93;6.72;;;7.20;68.70;;;;;;5025529;28;20014;-75
2020/12/11 08:59:50;;;;;;;10.63;6.72;;;7.20;68.70;;;;;;5023118;28;20396;-75
2020/12/11 09:02:15;;;;;;;10.57;6.43;;;7.20;68.70;;;;;;4991246;28;20038;-76
2020/12/11 09:04:41;;;;;;;10.05;6.30;;;7.20;68.70;;;;;;4998848;28;20103;-76
2020/12/11 09:07:07;;;;;;;11.32;7.30;;;7.20;69.20;;;;;;5000313;28;20045;-76
2020/12/11 09:09:32;;;;;;;10.57;7.63;;;7.20;68.60;;;;;;5004625;28;20033;-76
2020/12/11 09:11:58;;;;;;;8.40;5.72;;;7.20;68.70;;;;;;4996613;28;20056;-75
2020/12/11 09:14:23;;;;;;;9.30;6.63;;;7.20;68.70;;;;;;5001447;28;20045;-76
2020/12/11 09:16:49;;;;;;;11.20;7.00;;;7.20;68.70;;;;;;5005319;28;20060;-75
2020/12/11 09:19:15;;;;;;;12.18;8.70;;;7.30;68.70;;;;;;5001401;28;20026;-75
2020/12/11 09:21:40;;;;;;;9.05;7.00;;;7.20;68.50;;;;;;4992831;28;20038;-76
2020/12/11 09:24:06;;;;;;;10.48;6.57;;;7.30;68.60;;;;;;5007209;28;20029;-78
2020/12/11 09:26:32;;;;;;;9.48;6.05;;;7.30;68.60;;;;;;5008557;28;20025;-78
2020/12/11 09:29:45;;;;;;;7.57;5.85;;;7.30;68.60;;;;;;5014825;28;20036;-77
2020/12/11 09:31:46;;;;;;;7.82;5.57;;;7.30;68.70;;;;;;5007753;28;20029;-78
2020/12/11 09:34:12;;;;;;;6.82;5.20;;;7.30;68.70;;;;;;5003350;28;20566;-79
2020/12/11 09:36:42;;;;;;;8.88;5.97;;;7.40;68.70;;;;;;5023327;28;20035;-79
2020/12/11 09:39:08;;;;;;;8.80;6.07;;;7.40;68.70;;;;;;5022481;28;20027;-78
2020/12/11 09:41:41;;;;;;;9.70;6.90;;;7.40;68.60;;;;;;5010974;28;20387;-79
2020/12/11 09:44:38;;;;;;;9.43;6.65;;;7.50;68.50;;;;;;5021264;28;20400;-79
2020/12/11 09:47:30;;;;;;;10.40;6.97;;;7.40;68.50;;;;;;5024868;28;20025;-79
2020/12/11 09:52:34;;;;;;;8.25;5.82;;;7.40;68.40;;;;;;5024492;28;20025;-84
2020/12/11 09:54:59;;;;;;;8.80;5.82;;;7.50;68.50;;;;;;5016469;28;20028;-78
2020/12/11 09:57:25;;;;;;;8.88;6.78;;;7.40;68.50;;;;;;5014127;28;20030;-78
2020/12/11 09:59:53;;;;;;;7.78;5.78;;;7.50;68.40;;;;;;5022885;28;20455;-75
2020/12/11 10:04:47;;;;;;;11.45;6.53;;;7.50;68.50;;;;;;5014421;28;20025;-78
2020/12/11 10:07:14;;;;;;;9.75;6.65;;;7.60;68.50;;;;;;5016102;28;20485;-78
2020/12/11 10:09:42;;;;;;;10.73;5.90;;;7.60;68.40;;;;;;5017156;28;20500;-77
2020/12/11 10:12:08;;;;;;;7.68;5.75;;;7.50;68.40;;;;;;5022387;28;20032;-79
2020/12/11 10:14:38;;;;;;;9.43;6.32;;;7.60;68.40;;;;;;5003634;28;20498;-79
2020/12/11 10:17:03;;;;;;;8.75;6.80;;;7.60;68.30;;;;;;5023789;28;20568;-79
2020/12/11 10:19:29;;;;;;;6.68;5.15;;;7.70;68.30;;;;;;5018541;28;20113;-77
2020/12/11 10:21:55;;;;;;;9.32;6.93;;;7.70;68.30;;;;;;5020031;28;20032;-79
2020/12/11 10:24:22;;;;;;;7.00;5.40;;;7.70;68.30;;;;;;5022756;28;20529;-79
2020/12/11 10:26:48;;;;;;;7.45;5.47;;;7.70;68.30;;;;;;5018618;28;20675;-77
2020/12/11 10:29:13;;;;;;;7.68;5.93;;;7.70;68.30;;;;;;5016275;28;20104;-79
2020/12/11 10:31:42;;;;;;;9.15;6.18;;;7.80;68.30;;;;;;5017292;28;20129;-79
2020/12/11 10:34:12;;;;;;;9.05;7.03;;;7.80;68.20;;;;;;5014783;28;20026;-80
2020/12/11 10:36:38;;;;;;;7.97;6.00;;;7.80;68.00;;;;;;5018331;28;20064;-80
2020/12/11 10:39:04;;;;;;;8.30;6.47;;;8.00;68.20;;;;;;5021898;28;20125;-80
2020/12/11 10:41:30;;;;;;;8.90;6.85;;;7.80;68.00;;;;;;5023663;28;20388;-79
2020/12/11 10:43:55;;;;;;;6.90;4.95;;;7.90;68.00;;;;;;5013373;28;20040;-78
2020/12/11 10:46:21;;;;;;;7.65;5.32;;;7.80;68.00;;;;;;5021490;28;20029;-81
2020/12/11 10:48:47;;;;;;;10.20;6.32;;;7.90;68.00;;;;;;5021666;28;20025;-77
2020/12/11 10:51:14;;;;;;;9.60;6.78;;;7.90;67.90;;;;;;5022417;28;20079;-80
2020/12/11 10:53:42;;;;;;;8.93;6.47;;;7.90;67.70;;;;;;5026093;28;20033;-79
2020/12/11 10:56:08;;;;;;;7.63;5.88;;;7.90;67.60;;;;;;5027616;28;20029;-80
2020/12/11 10:58:35;;;;;;;7.22;5.70;;;7.90;67.60;;;;;;5026453;28;20534;-81
2020/12/11 11:01:10;;;;;;;9.93;7.50;;;8.00;67.70;;;;;;5031952;28;20037;-80
2020/12/11 11:03:36;;;;;;;6.95;6.00;;;8.00;67.40;;;;;;5028944;28;20533;-81
2020/12/11 11:06:51;;;;;;;9.52;6.80;;;7.90;67.40;;;;;;5032206;28;20648;-80
2020/12/11 11:11:38;;;;;;;8.88;6.82;;;8.00;67.30;;;;;;5025783;28;20038;-79
2020/12/11 11:22:31;;;;;;;6.85;5.57;;;8.00;67.40;;;;;;4970874;28;20042;-79
2020/12/11 11:25:29;;;;;;;7.45;5.65;;;8.00;67.40;;;;;;5019715;28;20463;-78
2020/12/11 11:27:58;;;;;;;7.65;5.60;;;8.00;67.40;;;;;;5014611;28;20033;-78
2020/12/11 11:30:26;;;;;;;9.43;6.38;;;8.00;67.50;;;;;;5018617;28;20041;-76
2020/12/11 11:32:51;;;;;;;8.50;5.97;;;8.00;67.50;;;;;;5019736;28;20152;-78
2020/12/11 11:35:17;;;;;;;6.68;4.90;;;7.90;67.40;;;;;;5023512;28;20132;-78
2020/12/11 11:37:44;;;;;;;8.40;5.75;;;8.00;67.60;;;;;;5003016;28;20037;-78
2020/12/11 11:40:09;;;;;;;6.95;5.68;;;8.00;67.50;;;;;;4999682;28;20564;-79
2020/12/11 11:42:35;;;;;;;8.93;5.60;;;8.00;67.50;;;;;;5005414;28;20124;-80
2020/12/11 11:45:04;;;;;;;7.55;5.72;;;8.10;67.50;;;;;;5006134;28;20034;-76
2020/12/11 11:47:31;;;;;;;7.10;5.50;;;8.10;67.60;;;;;;5005647;28;20440;-77
2020/12/11 11:54:48;;;;;;;7.40;6.13;;;8.20;67.40;;;;;;5003917;28;20109;-79
2020/12/11 11:57:13;;;;;;;6.90;5.40;;;8.10;67.40;;;;;;4999547;28;20039;-77
2020/12/11 11:59:39;;;;;;;8.43;6.38;;;8.20;67.30;;;;;;5004479;28;20044;-78
2020/12/11 12:02:04;;;;;;;9.20;6.47;;;8.10;67.10;;;;;;5008886;28;20122;-78
2020/12/11 12:04:30;;;;;;;6.15;5.07;;;8.20;67.70;;;;;;4998017;28;20060;-78
2020/12/11 12:06:56;;;;;;;6.18;5.07;;;8.20;67.20;;;;;;5000679;28;20025;-83
2020/12/11 12:09:22;;;;;;;6.65;4.90;;;8.20;67.30;;;;;;5035744;28;21559;-83
2020/12/11 12:11:47;;;;;;;5.60;4.40;;;8.20;67.40;;;;;;5017207;28;20071;-83
2020/12/11 12:14:13;;;;;;;6.13;4.93;;;8.30;67.50;;;;;;5011828;28;20037;-83
2020/12/11 12:16:40;;;;;;;5.90;4.43;;;8.30;67.60;;;;;;5004070;28;20034;-83
2020/12/11 12:19:09;;;;;;;7.65;5.28;;;8.30;67.60;;;;;;5007434;28;20037;-83
2020/12/11 12:21:55;;;;;;;6.50;5.78;;;8.30;67.40;;;;;;5015778;28;20025;-81
2020/12/11 12:29:35;;;;;;;8.00;6.40;;;8.40;67.00;;;;;;5013613;28;20033;-83
2020/12/11 12:32:13;;;;;;;7.45;6.57;;;8.50;67.00;;;;;;5027670;28;20609;-83
2020/12/11 12:40:18;;;;;;;9.25;5.90;;;8.50;67.10;;;;;;5032272;28;20109;-84
2020/12/11 12:43:00;;;;;;;6.07;5.03;;;8.60;67.10;;;;;;5035100;28;20037;-83
2020/12/11 12:45:26;;;;;;;7.88;5.90;;;8.60;67.10;;;;;;5025878;28;20521;-83
2020/12/11 12:47:51;;;;;;;8.75;6.38;;;8.60;66.80;;;;;;5029426;28;20030;-81
2020/12/11 12:50:17;;;;;;;7.40;5.90;;;8.60;66.80;;;;;;5029171;28;20034;-85
2020/12/11 12:52:42;;;;;;;7.18;5.95;;;8.70;66.70;;;;;;5032017;28;20104;-83
2020/12/11 12:55:08;;;;;;;8.60;6.00;;;8.70;66.70;;;;;;5031479;28;20025;-82
2020/12/11 13:00:16;;;;;;;6.45;4.95;;;8.70;66.60;;;;;;5031633;28;20034;-83
2020/12/11 13:05:19;;;;;;;5.60;4.63;;;8.70;66.60;;;;;;5025596;28;20034;-83
2020/12/11 13:07:44;;;;;;;6.75;5.45;;;8.70;66.60;;;;;;5026500;28;20038;-83
2020/12/11 13:10:10;;;;;;;8.98;6.68;;;8.70;66.60;;;;;;5029304;28;20034;-82
2020/12/11 13:12:35;;;;;;;8.00;5.75;;;8.80;66.60;;;;;;5020611;28;20038;-83
2020/12/11 13:15:01;;;;;;;7.50;5.53;;;8.70;66.40;;;;;;5027602;28;20041;-83
2020/12/11 13:17:26;;;;;;;6.57;5.13;;;8.70;66.40;;;;;;5027695;28;20025;-83
2020/12/11 13:19:53;;;;;;;7.50;6.07;;;8.70;66.80;;;;;;5030609;28;20050;-83
2020/12/11 13:27:44;;;;;;;5.40;4.13;;;8.70;66.30;;;;;;5034441;28;20036;-82
2020/12/11 13:30:11;;;;;;;8.40;5.38;;;8.80;66.50;;;;;;5029708;28;20033;-82
2020/12/11 13:32:36;;;;;;;6.65;5.18;;;8.80;66.40;;;;;;5020818;28;20041;-82
2020/12/11 13:35:02;;;;;;;6.43;5.13;;;8.80;66.50;;;;;;5006747;28;20033;-82
2020/12/11 13:37:31;;;;;;;8.15;5.88;;;8.90;66.50;;;;;;5018876;28;20084;-82
2020/12/11 13:39:57;;;;;;;6.70;5.15;;;8.80;66.40;;;;;;5016188;28;20059;-81
2020/12/11 13:42:23;;;;;;;6.82;5.28;;;8.80;66.40;;;;;;5019403;28;20037;-82
2020/12/11 13:44:49;;;;;;;8.18;6.15;;;8.90;66.60;;;;;;5015190;28;20361;-83